sensor_id;sensor_type;location;lat;lon;timestamp;temperature;humidity
23122;DHT22;11730;51.248;22.534;2023-07-13T00:05:26;19.40;40.40
23122;DHT22;11730;51.248;22.534;2023-07-13T00:07:54;19.30;45.50
23122;DHT22;11730;51.248;22.534;2023-07-13T00:10:21;19.50;42.30
23122;DHT22;11730;51.248;22.534;2023-07-13T00:12:49;19.30;38.10
23122;DHT22;11730;51.248;22.534;2023-07-13T00:15:20;19.40;47.50
23122;DHT22;11730;51.248;22.534;2023-07-13T00:20:18;19.70;39.50
23122;DHT22;11730;51.248;22.534;2023-07-13T00:22:49;19.20;47.30
23122;DHT22;11730;51.248;22.534;2023-07-13T00:27:44;19.10;50.40
23122;DHT22;11730;51.248;22.534;2023-07-13T00:30:11;19.20;50.50
23122;DHT22;11730;51.248;22.534;2023-07-13T00:32:38;19.20;48.80
23122;DHT22;11730;51.248;22.534;2023-07-13T00:37:33;19.20;49.50
23122;DHT22;11730;51.248;22.534;2023-07-13T00:40:03;19.10;40.80
23122;DHT22;11730;51.248;22.534;2023-07-13T00:50:09;19.20;41.60
23122;DHT22;11730;51.248;22.534;2023-07-13T00:57:32;19.10;51.30
23122;DHT22;11730;51.248;22.534;2023-07-13T01:05:01;19.20;46.20
23122;DHT22;11730;51.248;22.534;2023-07-13T01:12:23;18.90;44.80
23122;DHT22;11730;51.248;22.534;2023-07-13T01:14:57;19.10;39.90
23122;DHT22;11730;51.248;22.534;2023-07-13T01:24:53;19.20;50.00
23122;DHT22;11730;51.248;22.534;2023-07-13T01:29:53;18.80;46.80
23122;DHT22;11730;51.248;22.534;2023-07-13T01:37:24;19.00;42.50
23122;DHT22;11730;51.248;22.534;2023-07-13T01:42:19;19.10;52.70
23122;DHT22;11730;51.248;22.534;2023-07-13T01:47:14;19.00;46.60
23122;DHT22;11730;51.248;22.534;2023-07-13T01:57:03;19.10;50.60
23122;DHT22;11730;51.248;22.534;2023-07-13T01:59:30;18.40;52.10
23122;DHT22;11730;51.248;22.534;2023-07-13T02:04:25;18.90;53.90
23122;DHT22;11730;51.248;22.534;2023-07-13T02:06:52;19.00;48.90
23122;DHT22;11730;51.248;22.534;2023-07-13T02:14:13;18.80;54.20
23122;DHT22;11730;51.248;22.534;2023-07-13T02:28:58;18.70;56.50
23122;DHT22;11730;51.248;22.534;2023-07-13T02:31:25;18.80;56.70
23122;DHT22;11730;51.248;22.534;2023-07-13T02:33:52;18.90;57.10
23122;DHT22;11730;51.248;22.534;2023-07-13T02:43:41;18.70;56.00
23122;DHT22;11730;51.248;22.534;2023-07-13T02:46:08;19.00;55.00
23122;DHT22;11730;51.248;22.534;2023-07-13T02:48:36;19.00;55.20
23122;DHT22;11730;51.248;22.534;2023-07-13T03:00:55;19.30;53.10
23122;DHT22;11730;51.248;22.534;2023-07-13T03:03:22;18.70;53.70
23122;DHT22;11730;51.248;22.534;2023-07-13T03:05:58;18.80;43.10
23122;DHT22;11730;51.248;22.534;2023-07-13T03:11:05;18.90;43.10
23122;DHT22;11730;51.248;22.534;2023-07-13T03:18:27;18.60;52.70
23122;DHT22;11730;51.248;22.534;2023-07-13T03:20:55;18.70;53.50
23122;DHT22;11730;51.248;22.534;2023-07-13T03:23:22;18.70;53.70
23122;DHT22;11730;51.248;22.534;2023-07-13T03:40:35;19.00;50.80
23122;DHT22;11730;51.248;22.534;2023-07-13T03:52:52;19.20;48.70
23122;DHT22;11730;51.248;22.534;2023-07-13T04:00:14;19.30;49.30
23122;DHT22;11730;51.248;22.534;2023-07-13T04:07:37;19.40;48.10
23122;DHT22;11730;51.248;22.534;2023-07-13T04:10:05;19.40;39.10
23122;DHT22;11730;51.248;22.534;2023-07-13T04:14:59;19.60;46.60
23122;DHT22;11730;51.248;22.534;2023-07-13T04:42:02;20.20;39.50
23122;DHT22;11730;51.248;22.534;2023-07-13T04:51:51;20.30;41.10
23122;DHT22;11730;51.248;22.534;2023-07-13T05:01:40;20.50;35.40
23122;DHT22;11730;51.248;22.534;2023-07-13T05:04:07;20.40;41.00
23122;DHT22;11730;51.248;22.534;2023-07-13T05:09:02;20.50;42.60
23122;DHT22;11730;51.248;22.534;2023-07-13T05:18:51;20.70;36.30
23122;DHT22;11730;51.248;22.534;2023-07-13T05:21:19;21.00;41.10
23122;DHT22;11730;51.248;22.534;2023-07-13T05:26:14;21.10;38.70
23122;DHT22;11730;51.248;22.534;2023-07-13T05:38:33;21.40;36.70
23122;DHT22;11730;51.248;22.534;2023-07-13T05:41:01;21.40;35.30
23122;DHT22;11730;51.248;22.534;2023-07-13T05:50:54;21.30;32.30
23122;DHT22;11730;51.248;22.534;2023-07-13T05:58:17;21.50;30.20
23122;DHT22;11730;51.248;22.534;2023-07-13T06:08:07;22.00;28.40
23122;DHT22;11730;51.248;22.534;2023-07-13T06:10:35;21.90;24.00
23122;DHT22;11730;51.248;22.534;2023-07-13T06:13:03;22.20;25.20
23122;DHT22;11730;51.248;22.534;2023-07-13T06:27:47;22.70;25.60
23122;DHT22;11730;51.248;22.534;2023-07-13T06:40:07;22.50;32.30
23122;DHT22;11730;51.248;22.534;2023-07-13T06:47:29;23.10;33.30
23122;DHT22;11730;51.248;22.534;2023-07-13T06:59:49;23.60;33.40
23122;DHT22;11730;51.248;22.534;2023-07-13T07:04:43;24.10;34.30
23122;DHT22;11730;51.248;22.534;2023-07-13T07:19:30;24.00;8.40
23122;DHT22;11730;51.248;22.534;2023-07-13T07:21:57;24.60;18.10
23122;DHT22;11730;51.248;22.534;2023-07-13T07:36:51;24.10;23.80
23122;DHT22;11730;51.248;22.534;2023-07-13T07:54:08;24.50;14.50
23122;DHT22;11730;51.248;22.534;2023-07-13T07:56:40;24.10;9.00
23122;DHT22;11730;51.248;22.534;2023-07-13T07:59:09;23.10;10.80
23122;DHT22;11730;51.248;22.534;2023-07-13T08:19:36;22.90;14.40
23122;DHT22;11730;51.248;22.534;2023-07-13T08:24:30;22.50;15.20
23122;DHT22;11730;51.248;22.534;2023-07-13T08:26:57;22.40;15.70
23122;DHT22;11730;51.248;22.534;2023-07-13T08:31:51;22.70;14.20
23122;DHT22;11730;51.248;22.534;2023-07-13T08:36:45;23.10;14.10
23122;DHT22;11730;51.248;22.534;2023-07-13T08:39:12;22.90;13.10
23122;DHT22;11730;51.248;22.534;2023-07-13T08:44:20;23.50;12.20
23122;DHT22;11730;51.248;22.534;2023-07-13T08:46:53;23.30;12.50
23122;DHT22;11730;51.248;22.534;2023-07-13T08:49:22;23.80;11.60
23122;DHT22;11730;51.248;22.534;2023-07-13T08:52:01;23.40;12.10
23122;DHT22;11730;51.248;22.534;2023-07-13T08:54:32;23.20;12.80
23122;DHT22;11730;51.248;22.534;2023-07-13T08:57:15;23.30;12.40
23122;DHT22;11730;51.248;22.534;2023-07-13T08:59:43;23.40;13.10
23122;DHT22;11730;51.248;22.534;2023-07-13T09:02:28;23.40;12.80
23122;DHT22;11730;51.248;22.534;2023-07-13T09:05:03;23.10;14.10
23122;DHT22;11730;51.248;22.534;2023-07-13T09:10:32;23.00;16.30
23122;DHT22;11730;51.248;22.534;2023-07-13T09:13:40;23.40;16.00
23122;DHT22;11730;51.248;22.534;2023-07-13T09:16:10;23.40;15.40
23122;DHT22;11730;51.248;22.534;2023-07-13T09:18:42;23.30;15.60
23122;DHT22;11730;51.248;22.534;2023-07-13T09:26:20;23.70;13.60
23122;DHT22;11730;51.248;22.534;2023-07-13T09:28:49;23.80;12.50
23122;DHT22;11730;51.248;22.534;2023-07-13T09:31:45;23.90;12.80
23122;DHT22;11730;51.248;22.534;2023-07-13T09:34:14;23.70;13.30
23122;DHT22;11730;51.248;22.534;2023-07-13T09:42:29;23.60;12.10
23122;DHT22;11730;51.248;22.534;2023-07-13T09:44:42;23.80;12.60
23122;DHT22;11730;51.248;22.534;2023-07-13T09:49:55;23.60;14.60
23122;DHT22;11730;51.248;22.534;2023-07-13T09:52:27;23.80;13.80
23122;DHT22;11730;51.248;22.534;2023-07-13T09:54:55;23.90;12.00
23122;DHT22;11730;51.248;22.534;2023-07-13T10:00:29;24.10;10.70
23122;DHT22;11730;51.248;22.534;2023-07-13T10:03:06;24.20;11.40
23122;DHT22;11730;51.248;22.534;2023-07-13T10:05:43;24.00;12.20
23122;DHT22;11730;51.248;22.534;2023-07-13T10:08:27;23.60;11.60
23122;DHT22;11730;51.248;22.534;2023-07-13T10:11:01;23.50;13.80
23122;DHT22;11730;51.248;22.534;2023-07-13T10:13:33;23.80;13.80
23122;DHT22;11730;51.248;22.534;2023-07-13T10:16:07;23.90;12.70
23122;DHT22;11730;51.248;22.534;2023-07-13T10:18:49;23.80;13.70
23122;DHT22;11730;51.248;22.534;2023-07-13T10:21:22;23.50;13.70
23122;DHT22;11730;51.248;22.534;2023-07-13T10:24:18;23.80;13.80
23122;DHT22;11730;51.248;22.534;2023-07-13T10:27:16;23.70;13.60
23122;DHT22;11730;51.248;22.534;2023-07-13T10:30:02;23.70;14.50
23122;DHT22;11730;51.248;22.534;2023-07-13T10:32:35;23.60;14.90
23122;DHT22;11730;51.248;22.534;2023-07-13T10:35:03;24.00;13.10
23122;DHT22;11730;51.248;22.534;2023-07-13T10:37:39;23.70;12.50
23122;DHT22;11730;51.248;22.534;2023-07-13T10:40:35;23.60;13.20
23122;DHT22;11730;51.248;22.534;2023-07-13T10:43:11;23.50;14.10
23122;DHT22;11730;51.248;22.534;2023-07-13T10:48:12;23.80;13.10
23122;DHT22;11730;51.248;22.534;2023-07-13T10:50:46;24.00;12.10
23122;DHT22;11730;51.248;22.534;2023-07-13T10:53:20;24.00;12.00
23122;DHT22;11730;51.248;22.534;2023-07-13T11:01:02;24.00;10.60
23122;DHT22;11730;51.248;22.534;2023-07-13T11:03:31;24.20;11.10
23122;DHT22;11730;51.248;22.534;2023-07-13T11:06:16;23.90;11.80
23122;DHT22;11730;51.248;22.534;2023-07-13T11:22:10;23.70;10.80
23122;DHT22;11730;51.248;22.534;2023-07-13T11:27:52;23.90;7.90
23122;DHT22;11730;51.248;22.534;2023-07-13T11:33:11;23.70;9.40
23122;DHT22;11730;51.248;22.534;2023-07-13T11:38:42;23.80;9.40
23122;DHT22;11730;51.248;22.534;2023-07-13T11:41:33;23.80;9.90
23122;DHT22;11730;51.248;22.534;2023-07-13T11:44:13;23.60;9.30
23122;DHT22;11730;51.248;22.534;2023-07-13T11:46:46;23.60;8.00
23122;DHT22;11730;51.248;22.534;2023-07-13T11:49:19;24.00;7.90
23122;DHT22;11730;51.248;22.534;2023-07-13T11:51:50;23.90;8.00
23122;DHT22;11730;51.248;22.534;2023-07-13T11:54:30;24.20;9.20
23122;DHT22;11730;51.248;22.534;2023-07-13T11:57:23;24.40;7.80
23122;DHT22;11730;51.248;22.534;2023-07-13T12:12:19;25.00;5.00
23122;DHT22;11730;51.248;22.534;2023-07-13T12:14:46;25.00;3.70
23122;DHT22;11730;51.248;22.534;2023-07-13T12:17:23;24.50;3.70
23122;DHT22;11730;51.248;22.534;2023-07-13T12:19:52;24.70;4.70
23122;DHT22;11730;51.248;22.534;2023-07-13T12:22:20;24.90;3.80
23122;DHT22;11730;51.248;22.534;2023-07-13T12:24:47;25.10;1.00
23122;DHT22;11730;51.248;22.534;2023-07-13T12:27:22;25.00;1.00
23122;DHT22;11730;51.248;22.534;2023-07-13T12:30:00;24.80;1.00
23122;DHT22;11730;51.248;22.534;2023-07-13T12:35:12;24.90;1.00
23122;DHT22;11730;51.248;22.534;2023-07-13T12:37:45;24.60;1.00
23122;DHT22;11730;51.248;22.534;2023-07-13T12:40:17;24.70;1.70
23122;DHT22;11730;51.248;22.534;2023-07-13T12:42:51;24.20;2.40
23122;DHT22;11730;51.248;22.534;2023-07-13T12:45:22;24.70;2.70
23122;DHT22;11730;51.248;22.534;2023-07-13T12:47:55;24.60;3.30
23122;DHT22;11730;51.248;22.534;2023-07-13T12:50:47;24.60;2.40
23122;DHT22;11730;51.248;22.534;2023-07-13T12:53:18;24.50;3.10
23122;DHT22;11730;51.248;22.534;2023-07-13T12:56:01;24.40;3.50
23122;DHT22;11730;51.248;22.534;2023-07-13T13:00:59;24.20;2.80
23122;DHT22;11730;51.248;22.534;2023-07-13T13:03:48;24.20;4.00
23122;DHT22;11730;51.248;22.534;2023-07-13T13:08:50;24.40;3.70
23122;DHT22;11730;51.248;22.534;2023-07-13T13:11:21;24.40;1.10
23122;DHT22;11730;51.248;22.534;2023-07-13T13:13:50;24.40;1.60
23122;DHT22;11730;51.248;22.534;2023-07-13T13:18:48;24.40;3.50
23122;DHT22;11730;51.248;22.534;2023-07-13T13:21:16;24.10;4.80
23122;DHT22;11730;51.248;22.534;2023-07-13T13:26:12;23.90;5.70
23122;DHT22;11730;51.248;22.534;2023-07-13T13:31:08;23.90;7.20
23122;DHT22;11730;51.248;22.534;2023-07-13T13:33:44;24.00;7.60
23122;DHT22;11730;51.248;22.534;2023-07-13T13:36:30;24.10;6.50
23122;DHT22;11730;51.248;22.534;2023-07-13T13:46:21;23.90;6.80
23122;DHT22;11730;51.248;22.534;2023-07-13T13:48:49;23.80;6.80
23122;DHT22;11730;51.248;22.534;2023-07-13T13:51:21;24.00;6.40
23122;DHT22;11730;51.248;22.534;2023-07-13T13:56:18;23.70;6.90
23122;DHT22;11730;51.248;22.534;2023-07-13T13:58:45;23.70;8.50
23122;DHT22;11730;51.248;22.534;2023-07-13T14:01:18;23.60;7.70
23122;DHT22;11730;51.248;22.534;2023-07-13T14:06:16;23.70;9.60
23122;DHT22;11730;51.248;22.534;2023-07-13T14:08:43;23.70;10.30
23122;DHT22;11730;51.248;22.534;2023-07-13T14:11:15;23.50;9.80
23122;DHT22;11730;51.248;22.534;2023-07-13T14:13:49;23.70;9.70
23122;DHT22;11730;51.248;22.534;2023-07-13T14:16:20;23.50;10.00
23122;DHT22;11730;51.248;22.534;2023-07-13T14:18:48;23.50;10.20
23122;DHT22;11730;51.248;22.534;2023-07-13T14:21:21;23.50;11.80
23122;DHT22;11730;51.248;22.534;2023-07-13T14:23:48;23.40;11.00
23122;DHT22;11730;51.248;22.534;2023-07-13T14:26:20;23.50;12.50
23122;DHT22;11730;51.248;22.534;2023-07-13T14:28:52;23.30;11.70
23122;DHT22;11730;51.248;22.534;2023-07-13T14:31:21;23.10;13.90
23122;DHT22;11730;51.248;22.534;2023-07-13T14:33:52;23.10;14.80
23122;DHT22;11730;51.248;22.534;2023-07-13T14:39:01;23.20;16.70
23122;DHT22;11730;51.248;22.534;2023-07-13T14:44:00;23.00;18.60
23122;DHT22;11730;51.248;22.534;2023-07-13T14:46:28;22.80;19.70
23122;DHT22;11730;51.248;22.534;2023-07-13T14:51:42;23.00;23.40
23122;DHT22;11730;51.248;22.534;2023-07-13T14:54:09;22.70;25.30
23122;DHT22;11730;51.248;22.534;2023-07-13T15:03:59;22.10;35.70
23122;DHT22;11730;51.248;22.534;2023-07-13T15:06:26;22.10;38.60
23122;DHT22;11730;51.248;22.534;2023-07-13T15:11:22;21.90;42.00
23122;DHT22;11730;51.248;22.534;2023-07-13T15:13:49;21.80;39.20
23122;DHT22;11730;51.248;22.534;2023-07-13T15:16:24;21.90;36.80
23122;DHT22;11730;51.248;22.534;2023-07-13T15:21:24;20.90;25.00
23122;DHT22;11730;51.248;22.534;2023-07-13T15:31:22;19.60;33.90
23122;DHT22;11730;51.248;22.534;2023-07-13T15:33:52;19.20;36.80
23122;DHT22;11730;51.248;22.534;2023-07-13T15:36:21;18.90;42.00
23122;DHT22;11730;51.248;22.534;2023-07-13T15:38:50;18.60;41.00
23122;DHT22;11730;51.248;22.534;2023-07-13T15:41:23;18.70;44.50
23122;DHT22;11730;51.248;22.534;2023-07-13T15:43:52;18.60;45.00
23122;DHT22;11730;51.248;22.534;2023-07-13T15:46:20;17.60;44.70
23122;DHT22;11730;51.248;22.534;2023-07-13T15:48:50;18.30;48.60
23122;DHT22;11730;51.248;22.534;2023-07-13T15:51:24;18.30;43.90
23122;DHT22;11730;51.248;22.534;2023-07-13T15:54:03;18.30;46.50
23122;DHT22;11730;51.248;22.534;2023-07-13T15:56:35;18.40;46.10
23122;DHT22;11730;51.248;22.534;2023-07-13T15:59:03;18.70;46.70
23122;DHT22;11730;51.248;22.534;2023-07-13T16:01:31;18.50;46.00
23122;DHT22;11730;51.248;22.534;2023-07-13T16:03:59;18.00;45.30
23122;DHT22;11730;51.248;22.534;2023-07-13T16:06:37;18.30;48.00
23122;DHT22;11730;51.248;22.534;2023-07-13T16:09:18;18.20;49.10
23122;DHT22;11730;51.248;22.534;2023-07-13T16:11:46;17.90;49.10
23122;DHT22;11730;51.248;22.534;2023-07-13T16:14:14;18.00;49.20
23122;DHT22;11730;51.248;22.534;2023-07-13T16:19:10;18.10;46.00
23122;DHT22;11730;51.248;22.534;2023-07-13T16:21:43;18.20;47.70
23122;DHT22;11730;51.248;22.534;2023-07-13T16:24:20;18.30;47.70
23122;DHT22;11730;51.248;22.534;2023-07-13T16:26:49;18.50;50.90
23122;DHT22;11730;51.248;22.534;2023-07-13T16:29:21;18.40;46.20
23122;DHT22;11730;51.248;22.534;2023-07-13T16:32:04;18.30;49.90
23122;DHT22;11730;51.248;22.534;2023-07-13T16:34:36;18.30;48.70
23122;DHT22;11730;51.248;22.534;2023-07-13T16:37:18;18.30;47.30
23122;DHT22;11730;51.248;22.534;2023-07-13T16:39:49;18.30;49.30
23122;DHT22;11730;51.248;22.534;2023-07-13T16:47:15;18.70;50.30
23122;DHT22;11730;51.248;22.534;2023-07-13T16:49:44;18.10;49.50
23122;DHT22;11730;51.248;22.534;2023-07-13T16:52:15;18.10;49.40
23122;DHT22;11730;51.248;22.534;2023-07-13T16:54:47;18.20;50.60
23122;DHT22;11730;51.248;22.534;2023-07-13T16:57:31;18.20;50.60
23122;DHT22;11730;51.248;22.534;2023-07-13T17:02:36;18.00;52.40
23122;DHT22;11730;51.248;22.534;2023-07-13T17:05:08;18.20;49.10
23122;DHT22;11730;51.248;22.534;2023-07-13T17:10:06;17.90;50.80
23122;DHT22;11730;51.248;22.534;2023-07-13T17:12:33;18.00;51.90
23122;DHT22;11730;51.248;22.534;2023-07-13T17:15:01;18.40;50.50
23122;DHT22;11730;51.248;22.534;2023-07-13T17:17:33;18.10;51.00
23122;DHT22;11730;51.248;22.534;2023-07-13T17:20:01;18.40;50.90
23122;DHT22;11730;51.248;22.534;2023-07-13T17:24:57;18.50;48.00
23122;DHT22;11730;51.248;22.534;2023-07-13T17:34:49;18.70;50.90
23122;DHT22;11730;51.248;22.534;2023-07-13T17:37:17;18.80;46.50
23122;DHT22;11730;51.248;22.534;2023-07-13T17:47:24;18.60;47.20
23122;DHT22;11730;51.248;22.534;2023-07-13T17:49:53;18.50;46.30
23122;DHT22;11730;51.248;22.534;2023-07-13T17:52:21;18.60;48.20
23122;DHT22;11730;51.248;22.534;2023-07-13T17:54:51;18.70;48.10
23122;DHT22;11730;51.248;22.534;2023-07-13T17:57:18;18.50;48.70
23122;DHT22;11730;51.248;22.534;2023-07-13T18:02:18;18.30;49.40
23122;DHT22;11730;51.248;22.534;2023-07-13T18:04:46;18.30;45.30
23122;DHT22;11730;51.248;22.534;2023-07-13T18:07:13;18.10;49.50
23122;DHT22;11730;51.248;22.534;2023-07-13T18:09:44;18.40;51.30
23122;DHT22;11730;51.248;22.534;2023-07-13T18:12:13;18.50;51.10
23122;DHT22;11730;51.248;22.534;2023-07-13T18:17:13;18.30;48.90
23122;DHT22;11730;51.248;22.534;2023-07-13T18:19:44;18.20;47.80
23122;DHT22;11730;51.248;22.534;2023-07-13T18:22:14;18.10;49.10
23122;DHT22;11730;51.248;22.534;2023-07-13T18:24:42;19.00;54.70
23122;DHT22;11730;51.248;22.534;2023-07-13T18:27:09;18.20;53.10
23122;DHT22;11730;51.248;22.534;2023-07-13T18:29:38;18.40;51.90
23122;DHT22;11730;51.248;22.534;2023-07-13T18:32:06;17.90;48.90
23122;DHT22;11730;51.248;22.534;2023-07-13T18:34:37;18.00;48.60
23122;DHT22;11730;51.248;22.534;2023-07-13T18:37:14;17.90;45.30
23122;DHT22;11730;51.248;22.534;2023-07-13T18:39:54;17.80;44.90
23122;DHT22;11730;51.248;22.534;2023-07-13T18:42:21;17.50;48.00
23122;DHT22;11730;51.248;22.534;2023-07-13T18:44:50;17.40;48.10
23122;DHT22;11730;51.248;22.534;2023-07-13T18:47:20;17.50;46.40
23122;DHT22;11730;51.248;22.534;2023-07-13T18:52:19;17.50;51.00
23122;DHT22;11730;51.248;22.534;2023-07-13T18:54:47;17.60;51.00
23122;DHT22;11730;51.248;22.534;2023-07-13T19:02:14;18.50;50.10
23122;DHT22;11730;51.248;22.534;2023-07-13T19:04:42;17.60;51.60
23122;DHT22;11730;51.248;22.534;2023-07-13T19:07:10;17.60;49.00
23122;DHT22;11730;51.248;22.534;2023-07-13T19:12:16;17.80;49.70
23122;DHT22;11730;51.248;22.534;2023-07-13T19:17:16;18.00;50.20
23122;DHT22;11730;51.248;22.534;2023-07-13T19:19:43;17.40;49.20
23122;DHT22;11730;51.248;22.534;2023-07-13T19:22:14;17.70;47.60
23122;DHT22;11730;51.248;22.534;2023-07-13T19:24:41;17.70;50.30
23122;DHT22;11730;51.248;22.534;2023-07-13T19:27:12;17.40;50.70
23122;DHT22;11730;51.248;22.534;2023-07-13T19:29:40;17.60;49.20
23122;DHT22;11730;51.248;22.534;2023-07-13T19:32:11;17.70;50.50
23122;DHT22;11730;51.248;22.534;2023-07-13T19:37:22;17.30;52.30
23122;DHT22;11730;51.248;22.534;2023-07-13T19:39:50;17.60;53.60
23122;DHT22;11730;51.248;22.534;2023-07-13T19:42:21;17.60;51.00
23122;DHT22;11730;51.248;22.534;2023-07-13T19:44:51;17.20;52.20
23122;DHT22;11730;51.248;22.534;2023-07-13T19:47:19;17.20;50.70
23122;DHT22;11730;51.248;22.534;2023-07-13T19:52:19;17.60;50.50
23122;DHT22;11730;51.248;22.534;2023-07-13T19:54:52;17.50;50.90
23122;DHT22;11730;51.248;22.534;2023-07-13T19:57:24;17.40;50.30
23122;DHT22;11730;51.248;22.534;2023-07-13T19:59:52;17.40;50.90
23122;DHT22;11730;51.248;22.534;2023-07-13T20:02:22;17.50;54.00
23122;DHT22;11730;51.248;22.534;2023-07-13T20:04:50;17.20;52.70
23122;DHT22;11730;51.248;22.534;2023-07-13T20:07:19;17.20;52.90
23122;DHT22;11730;51.248;22.534;2023-07-13T20:09:48;17.10;53.20
23122;DHT22;11730;51.248;22.534;2023-07-13T20:12:22;17.10;54.10
23122;DHT22;11730;51.248;22.534;2023-07-13T20:17:35;17.00;55.00
23122;DHT22;11730;51.248;22.534;2023-07-13T20:22:51;17.90;58.60
23122;DHT22;11730;51.248;22.534;2023-07-13T20:25:22;17.00;57.90
23122;DHT22;11730;51.248;22.534;2023-07-13T20:30:17;17.10;59.70
23122;DHT22;11730;51.248;22.534;2023-07-13T20:40:20;17.30;59.90
23122;DHT22;11730;51.248;22.534;2023-07-13T20:42:48;17.20;60.30
23122;DHT22;11730;51.248;22.534;2023-07-13T20:50:23;17.20;58.60
23122;DHT22;11730;51.248;22.534;2023-07-13T20:52:53;17.30;59.00
23122;DHT22;11730;51.248;22.534;2023-07-13T20:55:23;17.20;57.00
23122;DHT22;11730;51.248;22.534;2023-07-13T20:57:51;17.20;58.40
23122;DHT22;11730;51.248;22.534;2023-07-13T21:00:21;17.20;57.70
23122;DHT22;11730;51.248;22.534;2023-07-13T21:02:51;17.20;56.80
23122;DHT22;11730;51.248;22.534;2023-07-13T21:05:21;17.40;57.80
23122;DHT22;11730;51.248;22.534;2023-07-13T21:07:50;17.30;58.10
23122;DHT22;11730;51.248;22.534;2023-07-13T21:12:45;17.40;57.30
23122;DHT22;11730;51.248;22.534;2023-07-13T21:20:20;17.40;56.90
23122;DHT22;11730;51.248;22.534;2023-07-13T21:22:48;17.40;57.40
23122;DHT22;11730;51.248;22.534;2023-07-13T21:25:29;17.80;58.50
23122;DHT22;11730;51.248;22.534;2023-07-13T21:27:58;18.30;60.50
23122;DHT22;11730;51.248;22.534;2023-07-13T21:30:29;17.40;57.30
23122;DHT22;11730;51.248;22.534;2023-07-13T21:32:58;17.40;57.70
23122;DHT22;11730;51.248;22.534;2023-07-13T21:35:30;17.30;56.70
23122;DHT22;11730;51.248;22.534;2023-07-13T21:37:59;17.00;59.60
23122;DHT22;11730;51.248;22.534;2023-07-13T21:40:30;17.20;57.50
23122;DHT22;11730;51.248;22.534;2023-07-13T21:42:57;17.00;58.70
23122;DHT22;11730;51.248;22.534;2023-07-13T21:45:26;17.20;58.30
23122;DHT22;11730;51.248;22.534;2023-07-13T21:47:54;17.20;58.70
23122;DHT22;11730;51.248;22.534;2023-07-13T21:50:26;17.10;59.20
23122;DHT22;11730;51.248;22.534;2023-07-13T21:55:25;16.80;63.20
23122;DHT22;11730;51.248;22.534;2023-07-13T21:57:54;17.60;64.00
23122;DHT22;11730;51.248;22.534;2023-07-13T22:00:23;16.70;63.30
23122;DHT22;11730;51.248;22.534;2023-07-13T22:02:53;17.20;62.80
23122;DHT22;11730;51.248;22.534;2023-07-13T22:07:50;17.10;61.90
23122;DHT22;11730;51.248;22.534;2023-07-13T22:10:21;17.10;61.20
23122;DHT22;11730;51.248;22.534;2023-07-13T22:15:17;17.00;63.70
23122;DHT22;11730;51.248;22.534;2023-07-13T22:17:48;17.00;62.10
23122;DHT22;11730;51.248;22.534;2023-07-13T22:20:18;17.20;62.40
23122;DHT22;11730;51.248;22.534;2023-07-13T22:22:46;17.00;64.60
23122;DHT22;11730;51.248;22.534;2023-07-13T22:30:14;16.90;61.80
23122;DHT22;11730;51.248;22.534;2023-07-13T22:32:42;16.90;65.40
23122;DHT22;11730;51.248;22.534;2023-07-13T22:35:13;16.90;62.40
23122;DHT22;11730;51.248;22.534;2023-07-13T22:37:42;16.70;65.80
23122;DHT22;11730;51.248;22.534;2023-07-13T22:40:13;17.10;65.80
23122;DHT22;11730;51.248;22.534;2023-07-13T22:45:09;17.00;63.20
23122;DHT22;11730;51.248;22.534;2023-07-13T22:47:39;17.10;63.00
23122;DHT22;11730;51.248;22.534;2023-07-13T22:50:13;17.20;66.40
23122;DHT22;11730;51.248;22.534;2023-07-13T22:52:42;16.80;65.90
23122;DHT22;11730;51.248;22.534;2023-07-13T22:55:14;17.10;66.00
23122;DHT22;11730;51.248;22.534;2023-07-13T22:57:42;17.00;62.80
23122;DHT22;11730;51.248;22.534;2023-07-13T23:00:18;16.90;62.80
23122;DHT22;11730;51.248;22.534;2023-07-13T23:02:45;16.70;66.40
23122;DHT22;11730;51.248;22.534;2023-07-13T23:05:15;17.00;63.60
23122;DHT22;11730;51.248;22.534;2023-07-13T23:10:14;17.70;66.50
23122;DHT22;11730;51.248;22.534;2023-07-13T23:12:41;16.90;65.40
23122;DHT22;11730;51.248;22.534;2023-07-13T23:15:13;17.00;67.20
23122;DHT22;11730;51.248;22.534;2023-07-13T23:17:47;16.90;64.40
23122;DHT22;11730;51.248;22.534;2023-07-13T23:20:26;16.70;66.80
23122;DHT22;11730;51.248;22.534;2023-07-13T23:22:54;16.90;65.50
23122;DHT22;11730;51.248;22.534;2023-07-13T23:25:24;16.80;66.50
23122;DHT22;11730;51.248;22.534;2023-07-13T23:27:53;16.90;64.10
23122;DHT22;11730;51.248;22.534;2023-07-13T23:30:22;16.70;67.30
23122;DHT22;11730;51.248;22.534;2023-07-13T23:33:02;17.00;68.10
23122;DHT22;11730;51.248;22.534;2023-07-13T23:35:30;17.00;65.60
23122;DHT22;11730;51.248;22.534;2023-07-13T23:40:27;16.80;66.20
23122;DHT22;11730;51.248;22.534;2023-07-13T23:42:54;16.90;70.20
23122;DHT22;11730;51.248;22.534;2023-07-13T23:45:26;16.70;67.20
23122;DHT22;11730;51.248;22.534;2023-07-13T23:47:56;16.70;70.70
23122;DHT22;11730;51.248;22.534;2023-07-13T23:50:29;16.90;67.80
23122;DHT22;11730;51.248;22.534;2023-07-13T23:52:56;16.70;71.50
23122;DHT22;11730;51.248;22.534;2023-07-13T23:55:26;16.70;71.10
23122;DHT22;11730;51.248;22.534;2023-07-13T23:57:56;16.60;71.60
